createdAt,value
2022-08-17T00:00:01.519Z,6.90
2022-08-17T00:01:00.627Z,9.20
2022-08-17T00:02:24.131Z,6.60
2022-08-17T00:03:01.479Z,7.70
2022-08-17T00:04:00.429Z,7.40
2022-08-17T00:05:00.435Z,8.10
2022-08-17T00:06:00.716Z,7.90
2022-08-17T00:07:00.377Z,7.40
2022-08-17T00:08:00.404Z,9.40
2022-08-17T00:09:00.527Z,8.40
2022-08-17T00:10:00.412Z,7.30
2022-08-17T00:11:00.432Z,8.50
2022-08-17T00:12:40.576Z,8.10
2022-08-17T00:13:01.463Z,5.80
2022-08-17T00:14:00.299Z,9.80
2022-08-17T00:15:00.292Z,6.80
2022-08-17T00:16:00.570Z,6.20
2022-08-17T00:17:00.352Z,8.20
2022-08-17T00:18:00.269Z,5.80
2022-08-17T00:19:07.499Z,5.80
2022-08-17T00:20:01.223Z,7.20
2022-08-17T00:21:00.258Z,7.80
2022-08-17T00:22:31.671Z,6.70
2022-08-17T00:23:01.322Z,8.20
2022-08-17T00:24:00.177Z,5.90
2022-08-17T00:25:00.196Z,6.80
2022-08-17T00:26:00.122Z,7.70
2022-08-17T00:27:00.239Z,6.20
2022-08-17T00:28:00.139Z,7.50
2022-08-17T00:29:00.144Z,6.50
2022-08-17T00:30:00.147Z,7.40
2022-08-17T00:31:00.042Z,7.90
2022-08-17T00:32:00.120Z,7.10
2022-08-17T00:33:23.483Z,6.50
2022-08-17T00:34:01.013Z,7.20
2022-08-17T00:34:59.993Z,9.20
2022-08-17T00:36:04.092Z,8.80
2022-08-17T00:37:00.005Z,7.00
2022-08-17T00:38:08.113Z,8.10
2022-08-17T00:39:00.999Z,6.80
2022-08-17T00:40:00.023Z,7.70
2022-08-17T00:41:00.192Z,9.50
2022-08-17T00:41:59.919Z,7.50
2022-08-17T00:42:59.914Z,9.30
2022-08-17T00:44:00.032Z,6.60
2022-08-17T00:44:59.948Z,9.60
2022-08-17T00:45:59.895Z,7.00
2022-08-17T00:46:59.847Z,7.90
2022-08-17T00:47:59.900Z,8.10
2022-08-17T00:48:59.843Z,7.10
2022-08-17T00:49:59.905Z,7.80
2022-08-17T00:50:59.809Z,7.70
2022-08-17T00:52:02.485Z,9.10
2022-08-17T00:53:00.780Z,8.50
2022-08-17T00:53:59.753Z,8.60
2022-08-17T00:54:59.871Z,8.20
2022-08-17T00:55:59.762Z,11.50
2022-08-17T00:56:59.803Z,8.00
2022-08-17T00:57:59.734Z,7.70
2022-08-17T00:58:59.719Z,6.70
2022-08-17T01:00:02.130Z,7.80
2022-08-17T01:00:59.726Z,9.30
2022-08-17T01:01:59.707Z,8.10
2022-08-17T01:02:59.787Z,10.80
2022-08-17T01:03:59.834Z,9.20
2022-08-17T01:04:59.627Z,7.30
2022-08-17T01:05:59.797Z,8.60
2022-08-17T01:06:59.574Z,9.60
2022-08-17T01:07:59.574Z,10.20
2022-08-17T01:08:59.630Z,9.00
2022-08-17T01:09:59.587Z,10.30
2022-08-17T01:11:01.738Z,13.40
2022-08-17T01:11:59.505Z,11.30
2022-08-17T01:12:59.504Z,9.30
2022-08-17T01:13:59.515Z,8.80
2022-08-17T01:14:59.487Z,11.80
2022-08-17T01:15:59.453Z,8.70
2022-08-17T01:16:59.460Z,10.00
2022-08-17T01:18:35.718Z,10.40
2022-08-17T01:19:00.435Z,10.30
2022-08-17T01:19:59.447Z,10.90
2022-08-17T01:20:59.494Z,10.20
2022-08-17T01:21:59.377Z,10.10
2022-08-17T01:22:59.523Z,10.00
2022-08-17T01:23:59.406Z,11.80
2022-08-17T01:24:59.347Z,11.20
2022-08-17T01:25:59.341Z,8.50
2022-08-17T01:26:59.357Z,9.70
2022-08-17T01:27:59.372Z,10.70
2022-08-17T01:28:59.273Z,11.60
2022-08-17T01:29:59.352Z,9.80
2022-08-17T01:31:36.242Z,7.80
2022-08-17T01:32:00.306Z,8.50
2022-08-17T01:32:59.219Z,9.00
2022-08-17T01:33:59.280Z,8.50
2022-08-17T01:34:59.249Z,8.40
2022-08-17T01:35:59.202Z,7.80
2022-08-17T01:37:00.671Z,7.90
2022-08-17T01:37:59.234Z,9.40
2022-08-17T01:38:59.158Z,11.20
2022-08-17T01:39:59.230Z,8.60
2022-08-17T01:40:59.275Z,10.70
2022-08-17T01:41:59.230Z,6.40
2022-08-17T01:42:59.106Z,8.80
2022-08-17T01:43:59.176Z,8.20
2022-08-17T01:44:59.162Z,7.60
2022-08-17T01:46:03.624Z,8.60
2022-08-17T01:47:00.044Z,7.10
2022-08-17T01:47:59.062Z,7.20
2022-08-17T01:48:59.230Z,8.70
2022-08-17T01:49:59.092Z,8.50
2022-08-17T01:50:59.052Z,9.80
2022-08-17T01:51:59.085Z,9.80
2022-08-17T01:52:59.016Z,8.10
2022-08-17T01:53:58.945Z,7.30
2022-08-17T01:54:58.988Z,7.50
2022-08-17T01:55:58.971Z,8.60
2022-08-17T01:56:58.892Z,9.00
2022-08-17T01:57:58.985Z,9.10
2022-08-17T01:58:58.900Z,8.00
2022-08-17T01:59:59.027Z,9.30
2022-08-17T02:01:00.114Z,9.30
2022-08-17T02:01:58.947Z,10.60
2022-08-17T02:02:58.998Z,8.90
2022-08-17T02:04:00.818Z,9.10
2022-08-17T02:04:58.822Z,9.00
2022-08-17T02:05:58.780Z,8.70
2022-08-17T02:07:20.215Z,11.40
2022-08-17T02:08:00.917Z,8.80
2022-08-17T02:09:02.893Z,9.30
2022-08-17T02:09:58.735Z,9.00
2022-08-17T02:10:58.743Z,9.70
2022-08-17T02:11:58.865Z,8.40
2022-08-17T02:12:58.741Z,8.30
2022-08-17T02:14:02.975Z,10.50
2022-08-17T02:14:59.683Z,9.80
2022-08-17T02:15:58.657Z,10.80
2022-08-17T02:16:58.711Z,11.20
2022-08-17T02:17:58.635Z,9.60
2022-08-17T02:18:58.637Z,9.90
2022-08-17T02:19:58.600Z,7.60
2022-08-17T02:20:58.608Z,9.10
2022-08-17T02:21:58.743Z,8.90
2022-08-17T02:22:58.593Z,9.20
2022-08-17T02:23:58.547Z,10.40
2022-08-17T02:25:02.196Z,10.90
2022-08-17T02:25:58.532Z,9.90
2022-08-17T02:26:58.509Z,9.30
2022-08-17T02:27:58.568Z,8.90
2022-08-17T02:28:58.473Z,11.60
2022-08-17T02:29:58.503Z,8.60
2022-08-17T02:31:02.506Z,10.30
2022-08-17T02:31:58.451Z,11.60
2022-08-17T02:32:58.448Z,9.10
2022-08-17T02:34:03.612Z,10.10
2022-08-17T02:34:59.533Z,11.10
2022-08-17T02:35:58.426Z,9.20
2022-08-17T02:36:58.380Z,9.20
2022-08-17T02:37:58.430Z,9.30
2022-08-17T02:38:58.348Z,8.90
2022-08-17T02:39:58.359Z,9.10
2022-08-17T02:40:58.486Z,8.90
2022-08-17T02:41:58.312Z,10.30
2022-08-17T02:42:58.307Z,9.40
2022-08-17T02:43:58.382Z,8.20
2022-08-17T02:44:58.283Z,11.60
2022-08-17T02:45:58.252Z,9.80
2022-08-17T02:46:58.410Z,10.30
2022-08-17T02:47:58.218Z,7.50
2022-08-17T02:48:58.243Z,7.80
2022-08-17T02:49:58.236Z,10.20
2022-08-17T02:50:58.198Z,10.20
2022-08-17T02:51:58.164Z,8.40
2022-08-17T02:53:02.046Z,10.80
2022-08-17T02:54:38.810Z,9.80
2022-08-17T02:54:59.155Z,8.90
2022-08-17T02:55:58.147Z,9.40
2022-08-17T02:56:58.149Z,11.20
2022-08-17T02:57:58.099Z,8.00
2022-08-17T02:58:58.082Z,10.20
2022-08-17T02:59:58.069Z,7.60
2022-08-17T03:00:58.061Z,9.00
2022-08-17T03:01:58.133Z,9.80
2022-08-17T03:02:58.050Z,7.60
2022-08-17T03:03:58.019Z,8.80
2022-08-17T03:04:58.040Z,9.00
2022-08-17T03:05:57.973Z,7.40
2022-08-17T03:06:57.971Z,5.60
2022-08-17T03:07:58.002Z,6.30
2022-08-17T03:08:57.985Z,7.70
2022-08-17T03:09:57.920Z,8.50
2022-08-17T03:10:57.940Z,9.20
2022-08-17T03:11:57.949Z,7.70
2022-08-17T03:12:57.911Z,7.20
2022-08-17T03:13:57.893Z,7.40
2022-08-17T03:14:57.926Z,8.40
2022-08-17T03:15:57.873Z,8.00
2022-08-17T03:16:57.879Z,8.90
2022-08-17T03:17:57.837Z,9.40
2022-08-17T03:18:57.823Z,7.90
2022-08-17T03:19:57.824Z,7.70
2022-08-17T03:20:57.808Z,8.10
2022-08-17T03:21:57.798Z,9.00
2022-08-17T03:23:01.691Z,10.40
2022-08-17T03:23:58.731Z,8.70
2022-08-17T03:24:57.739Z,6.60
2022-08-17T03:25:57.744Z,10.50
2022-08-17T03:26:57.702Z,10.30
2022-08-17T03:27:57.711Z,8.20
2022-08-17T03:28:57.731Z,7.90
2022-08-17T03:29:57.671Z,9.80
2022-08-17T03:30:57.654Z,9.80
2022-08-17T03:31:57.676Z,9.30
2022-08-17T03:32:57.621Z,10.90
2022-08-17T03:33:57.620Z,8.50
2022-08-17T03:34:57.620Z,9.60
2022-08-17T03:35:57.570Z,9.00
2022-08-17T03:36:57.569Z,9.20
2022-08-17T03:38:00.818Z,10.30
2022-08-17T03:38:57.576Z,7.90
2022-08-17T03:39:57.648Z,7.80
2022-08-17T03:40:59.900Z,10.80
2022-08-17T03:41:57.515Z,9.40
2022-08-17T03:42:57.491Z,7.70
2022-08-17T03:43:57.525Z,9.50
2022-08-17T03:44:57.862Z,8.80
2022-08-17T03:45:57.461Z,10.60
2022-08-17T03:46:57.481Z,8.50
2022-08-17T03:47:57.431Z,10.20
2022-08-17T03:48:57.423Z,12.00
2022-08-17T03:49:57.411Z,10.10
2022-08-17T03:50:57.398Z,10.70
2022-08-17T03:51:57.372Z,13.30
2022-08-17T03:52:57.533Z,11.30
2022-08-17T03:53:57.381Z,9.60
2022-08-17T03:54:57.342Z,8.50
2022-08-17T03:55:57.322Z,11.70
2022-08-17T03:56:57.312Z,8.40
2022-08-17T03:57:57.283Z,11.60
2022-08-17T03:58:57.289Z,9.40
2022-08-17T03:59:57.263Z,10.20
2022-08-17T04:00:57.330Z,8.50
2022-08-17T04:01:57.233Z,9.90
2022-08-17T04:02:57.254Z,8.50
2022-08-17T04:03:57.938Z,9.40
2022-08-17T04:04:57.212Z,12.00
2022-08-17T04:05:57.210Z,9.20
2022-08-17T04:06:57.183Z,9.10
2022-08-17T04:07:57.152Z,7.50
2022-08-17T04:08:57.160Z,9.80
2022-08-17T04:09:57.132Z,9.50
2022-08-17T04:10:57.114Z,8.50
2022-08-17T04:11:57.093Z,9.40
2022-08-17T04:12:57.121Z,9.10
2022-08-17T04:13:57.152Z,9.90
2022-08-17T04:14:57.053Z,8.20
2022-08-17T04:15:57.044Z,8.70
2022-08-17T04:16:57.035Z,9.80
2022-08-17T04:17:57.042Z,13.60
2022-08-17T04:18:57.081Z,9.00
2022-08-17T04:19:57.027Z,10.70
2022-08-17T04:20:57.081Z,9.70
2022-08-17T04:21:56.980Z,10.00
2022-08-17T04:22:56.952Z,9.90
2022-08-17T04:23:56.959Z,9.10
2022-08-17T04:24:56.955Z,9.40
2022-08-17T04:25:56.955Z,14.40
2022-08-17T04:26:56.904Z,10.70
2022-08-17T04:27:56.904Z,10.10
2022-08-17T04:28:56.868Z,16.50
2022-08-17T04:29:56.903Z,10.30
2022-08-17T04:30:56.979Z,13.40
2022-08-17T04:31:56.927Z,12.30
2022-08-17T04:33:10.938Z,14.00
2022-08-17T04:33:57.819Z,13.00
2022-08-17T04:34:56.816Z,14.40
2022-08-17T04:35:56.839Z,15.70
2022-08-17T04:36:56.855Z,12.10
2022-08-17T04:37:56.785Z,11.30
2022-08-17T04:38:58.312Z,8.90
2022-08-17T04:40:00.709Z,10.30
2022-08-17T04:40:57.712Z,10.80
2022-08-17T04:41:56.718Z,11.10
2022-08-17T04:42:59.966Z,10.60
2022-08-17T04:43:56.677Z,8.50
2022-08-17T04:44:56.676Z,9.10
2022-08-17T04:45:57.247Z,10.00
2022-08-17T04:46:56.742Z,10.70
2022-08-17T04:47:56.633Z,10.70
2022-08-17T04:48:56.675Z,8.60
2022-08-17T04:49:56.642Z,11.50
2022-08-17T04:50:56.609Z,9.30
2022-08-17T04:52:00.042Z,10.20
2022-08-17T04:52:57.863Z,10.70
2022-08-17T04:53:56.545Z,9.90
2022-08-17T04:54:56.615Z,11.90
2022-08-17T04:55:56.560Z,8.30
2022-08-17T04:56:56.498Z,9.40
2022-08-17T04:57:56.495Z,10.50
2022-08-17T04:58:56.522Z,10.00
2022-08-17T04:59:56.497Z,9.30
2022-08-17T05:00:56.541Z,11.20
2022-08-17T05:01:56.493Z,9.60
2022-08-17T05:02:56.587Z,10.10
2022-08-17T05:03:56.492Z,10.60
2022-08-17T05:04:56.390Z,10.90
2022-08-17T05:05:56.418Z,14.60
2022-08-17T05:06:56.429Z,15.20
2022-08-17T05:07:56.362Z,14.10
2022-08-17T05:08:56.350Z,16.90
2022-08-17T05:09:56.332Z,14.60
2022-08-17T05:10:56.314Z,10.10
2022-08-17T05:11:56.437Z,11.00
2022-08-17T05:12:56.310Z,9.20
2022-08-17T05:13:56.276Z,9.20
2022-08-17T05:14:56.310Z,9.80
2022-08-17T05:15:56.296Z,8.60
2022-08-17T05:16:56.272Z,9.40
2022-08-17T05:17:56.268Z,10.10
2022-08-17T05:18:56.246Z,8.80
2022-08-17T05:19:56.198Z,7.40
2022-08-17T05:20:56.168Z,11.30
2022-08-17T05:21:56.184Z,7.50
2022-08-17T05:22:56.167Z,6.80
2022-08-17T05:23:56.885Z,8.30
2022-08-17T05:24:56.167Z,9.00
2022-08-17T05:25:56.136Z,7.60
2022-08-17T05:26:56.119Z,6.40
2022-08-17T05:27:56.151Z,8.30
2022-08-17T05:28:57.045Z,7.70
2022-08-17T05:29:56.106Z,9.30
2022-08-17T05:30:56.082Z,7.40
2022-08-17T05:31:56.095Z,9.20
2022-08-17T05:32:56.030Z,9.30
2022-08-17T05:33:56.093Z,7.50
2022-08-17T05:34:56.042Z,6.80
2022-08-17T05:35:56.023Z,8.50
2022-08-17T05:36:56.031Z,9.60
2022-08-17T05:37:56.745Z,6.70
2022-08-17T05:38:56.023Z,7.90
2022-08-17T05:39:56.092Z,9.20
2022-08-17T05:40:55.987Z,6.20
2022-08-17T05:41:55.983Z,7.40
2022-08-17T05:42:55.911Z,7.10
2022-08-17T05:43:56.653Z,6.80
2022-08-17T05:44:55.944Z,7.20
2022-08-17T05:45:56.446Z,7.40
2022-08-17T05:46:55.889Z,6.70
2022-08-17T05:47:55.892Z,7.80
2022-08-17T05:48:55.852Z,6.70
2022-08-17T05:49:55.844Z,6.90
2022-08-17T05:50:55.986Z,8.10
2022-08-17T05:51:55.802Z,7.10
2022-08-17T05:52:55.797Z,7.50
2022-08-17T05:53:55.794Z,8.30
2022-08-17T05:54:55.768Z,8.20
2022-08-17T05:55:55.744Z,7.00
2022-08-17T05:56:55.736Z,8.50
2022-08-17T05:57:56.125Z,7.40
2022-08-17T05:58:55.695Z,9.90
2022-08-17T05:59:55.698Z,6.70
2022-08-17T06:00:55.746Z,6.60
2022-08-17T06:01:55.663Z,7.70
2022-08-17T06:02:55.663Z,9.60
2022-08-17T06:03:55.686Z,7.30
2022-08-17T06:04:55.662Z,7.40
2022-08-17T06:05:55.629Z,7.00
2022-08-17T06:06:55.613Z,9.20
2022-08-17T06:07:55.702Z,8.50
2022-08-17T06:08:55.579Z,7.70
2022-08-17T06:09:55.696Z,6.80
2022-08-17T06:10:55.557Z,9.20
2022-08-17T06:11:55.558Z,8.60
2022-08-17T06:12:55.569Z,7.30
2022-08-17T06:13:55.563Z,7.80
2022-08-17T06:14:55.518Z,6.90
2022-08-17T06:16:33.497Z,7.00
2022-08-17T06:16:56.517Z,6.80
2022-08-17T06:17:55.596Z,8.90
2022-08-17T06:18:55.469Z,9.90
2022-08-17T06:19:55.530Z,7.40
2022-08-17T06:20:55.462Z,10.00
2022-08-17T06:21:55.470Z,8.60
2022-08-17T06:22:55.581Z,9.10
2022-08-17T06:23:55.436Z,9.40
2022-08-17T06:24:55.381Z,8.20
2022-08-17T06:25:55.398Z,10.30
2022-08-17T06:26:55.406Z,11.00
2022-08-17T06:27:55.466Z,8.00
2022-08-17T06:28:55.385Z,8.10
2022-08-17T06:29:55.341Z,7.90
2022-08-17T06:30:59.271Z,7.80
2022-08-17T06:31:56.325Z,7.40
2022-08-17T06:32:55.297Z,7.10
2022-08-17T06:33:55.281Z,7.90
2022-08-17T06:34:55.309Z,10.20
2022-08-17T06:35:55.286Z,7.90
2022-08-17T06:36:55.283Z,7.80
2022-08-17T06:37:55.348Z,9.40
2022-08-17T06:38:55.323Z,7.60
2022-08-17T06:39:55.313Z,9.30
2022-08-17T06:40:55.192Z,9.00
2022-08-17T06:41:55.242Z,11.40
2022-08-17T06:43:06.534Z,6.90
2022-08-17T06:43:56.272Z,9.70
2022-08-17T06:44:55.212Z,8.10
2022-08-17T06:45:55.127Z,9.00
2022-08-17T06:46:55.143Z,8.80
2022-08-17T06:47:55.106Z,10.30
2022-08-17T06:48:55.127Z,8.50
2022-08-17T06:49:55.658Z,8.30
2022-08-17T06:50:55.087Z,12.40
2022-08-17T06:51:55.094Z,10.10
2022-08-17T06:52:55.059Z,8.30
2022-08-17T06:53:55.185Z,11.80
2022-08-17T06:54:55.018Z,11.50
2022-08-17T06:55:55.080Z,10.90
2022-08-17T06:56:55.493Z,10.70
2022-08-17T06:57:54.975Z,9.80
2022-08-17T06:58:55.068Z,8.90
2022-08-17T06:59:56.654Z,8.90
2022-08-17T07:00:58.614Z,8.90
2022-08-17T07:01:54.916Z,12.20
2022-08-17T07:02:54.915Z,13.40
2022-08-17T07:03:54.928Z,10.50
2022-08-17T07:04:54.907Z,8.80
2022-08-17T07:05:55.011Z,9.90
2022-08-17T07:06:55.027Z,11.10
2022-08-17T07:07:55.028Z,9.20
2022-08-17T07:08:54.856Z,10.80
2022-08-17T07:09:54.828Z,12.00
2022-08-17T07:10:54.898Z,11.40
2022-08-17T07:11:54.957Z,10.50
2022-08-17T07:12:54.778Z,8.70
2022-08-17T07:13:54.922Z,9.40
2022-08-17T07:14:54.755Z,9.90
2022-08-17T07:15:57.087Z,9.70
2022-08-17T07:16:54.738Z,8.10
2022-08-17T07:17:54.720Z,7.70
2022-08-17T07:18:54.911Z,9.50
2022-08-17T07:19:55.474Z,12.70
2022-08-17T07:20:54.695Z,8.80
2022-08-17T07:21:54.668Z,10.50
2022-08-17T07:22:59.723Z,8.40
2022-08-17T07:23:55.641Z,9.50
2022-08-17T07:24:54.654Z,8.40
2022-08-17T07:25:54.599Z,8.60
2022-08-17T07:26:54.651Z,8.20
2022-08-17T07:27:54.590Z,10.70
2022-08-17T07:28:54.581Z,9.20
2022-08-17T07:29:54.548Z,7.40
2022-08-17T07:30:54.590Z,8.50
2022-08-17T07:31:54.541Z,11.80
2022-08-17T07:32:54.539Z,9.10
2022-08-17T07:33:54.541Z,9.40
2022-08-17T07:34:54.511Z,6.50
2022-08-17T07:35:54.520Z,7.80
2022-08-17T07:36:54.490Z,9.70
2022-08-17T07:37:54.457Z,10.00
2022-08-17T07:38:54.539Z,7.60
2022-08-17T07:40:15.415Z,7.90
2022-08-17T07:40:55.411Z,7.40
2022-08-17T07:41:58.823Z,9.00
2022-08-17T07:42:55.381Z,6.70
2022-08-17T07:43:54.437Z,8.50
2022-08-17T07:44:54.429Z,10.20
2022-08-17T07:45:54.341Z,9.50
2022-08-17T07:46:54.349Z,6.30
2022-08-17T07:47:54.377Z,6.10
2022-08-17T07:48:54.311Z,6.40
2022-08-17T07:49:54.282Z,10.20
2022-08-17T07:50:54.334Z,10.30
2022-08-17T07:51:54.335Z,9.80
2022-08-17T07:52:54.298Z,7.80
2022-08-17T07:53:54.664Z,7.50
2022-08-17T07:54:55.388Z,6.50
2022-08-17T07:55:54.207Z,8.80
2022-08-17T07:56:54.265Z,6.10
2022-08-17T07:57:54.195Z,8.80
2022-08-17T07:58:54.203Z,6.00
2022-08-17T07:59:54.158Z,6.30
2022-08-17T08:00:54.245Z,6.10
2022-08-17T08:01:54.173Z,6.40
2022-08-17T08:02:54.195Z,5.30
2022-08-17T08:03:54.131Z,9.80
2022-08-17T08:05:02.095Z,7.10
2022-08-17T08:05:55.105Z,6.30
2022-08-17T08:06:54.085Z,5.10
2022-08-17T08:07:54.161Z,5.30
2022-08-17T08:08:54.047Z,6.20
2022-08-17T08:09:54.127Z,5.10
2022-08-17T08:10:54.056Z,4.80
2022-08-17T08:11:54.016Z,6.90
2022-08-17T08:12:54.036Z,6.90
2022-08-17T08:13:54.042Z,7.00
2022-08-17T08:14:53.994Z,5.40
2022-08-17T08:15:54.740Z,7.10
2022-08-17T08:16:54.089Z,5.50
2022-08-17T08:17:53.928Z,6.20
2022-08-17T08:18:56.824Z,6.10
2022-08-17T08:19:53.967Z,5.20
2022-08-17T08:20:54.196Z,5.50
2022-08-17T08:21:53.871Z,3.90
2022-08-17T08:22:54.066Z,4.50
2022-08-17T08:23:53.868Z,4.50
2022-08-17T08:24:53.908Z,4.50
2022-08-17T08:25:53.890Z,7.70
2022-08-17T08:26:53.824Z,5.10
2022-08-17T08:27:53.824Z,6.90
2022-08-17T08:28:53.999Z,5.50
2022-08-17T08:29:53.781Z,4.90
2022-08-17T08:30:53.828Z,5.80
2022-08-17T08:31:53.766Z,4.60
2022-08-17T08:32:53.774Z,6.50
2022-08-17T08:33:53.842Z,4.90
2022-08-17T08:35:02.022Z,5.40
2022-08-17T08:35:54.694Z,5.20
2022-08-17T08:37:02.149Z,5.90
2022-08-17T08:37:54.743Z,5.80
2022-08-17T08:38:53.714Z,5.50
2022-08-17T08:39:53.717Z,7.50
2022-08-17T08:40:53.703Z,4.50
2022-08-17T08:41:53.821Z,6.00
2022-08-17T08:42:53.632Z,4.90
2022-08-17T08:43:53.618Z,5.60
2022-08-17T08:45:01.121Z,7.30
2022-08-17T08:45:54.573Z,5.70
2022-08-17T08:46:53.542Z,6.40
2022-08-17T08:47:53.807Z,5.60
2022-08-17T08:48:57.855Z,6.80
2022-08-17T08:50:04.455Z,5.80
2022-08-17T08:50:54.515Z,6.00
2022-08-17T08:51:53.493Z,7.10
2022-08-17T08:52:53.592Z,5.90
2022-08-17T08:53:53.457Z,4.20
2022-08-17T08:54:53.454Z,4.90
2022-08-17T08:55:53.485Z,5.90
2022-08-17T08:57:21.869Z,6.40
2022-08-17T08:57:54.414Z,6.80
2022-08-17T08:58:53.453Z,6.10
2022-08-17T08:59:58.338Z,5.10
2022-08-17T09:00:54.470Z,5.90
2022-08-17T09:01:53.406Z,5.30
2022-08-17T09:02:53.363Z,4.70
2022-08-17T09:03:53.843Z,5.30
2022-08-17T09:05:13.499Z,6.90
2022-08-17T09:05:54.346Z,6.20
2022-08-17T09:06:53.335Z,7.00
2022-08-17T09:07:56.250Z,5.70
2022-08-17T09:08:53.282Z,6.40
2022-08-17T09:09:56.143Z,5.90
2022-08-17T09:10:54.307Z,5.30
2022-08-17T09:12:01.364Z,4.10
2022-08-17T09:12:54.410Z,3.80
2022-08-17T09:13:54.691Z,4.40
2022-08-17T09:14:54.061Z,4.50
2022-08-17T09:15:53.177Z,7.50
2022-08-17T09:16:53.219Z,6.30
2022-08-17T09:18:14.636Z,5.30
2022-08-17T09:19:00.794Z,3.70
2022-08-17T09:19:54.118Z,6.20
2022-08-17T09:20:53.243Z,5.20
2022-08-17T09:21:53.097Z,5.70
2022-08-17T09:22:53.089Z,5.70
2022-08-17T09:23:53.136Z,8.70
2022-08-17T09:24:53.098Z,6.40
2022-08-17T09:25:53.029Z,7.60
2022-08-17T09:26:53.107Z,5.20
2022-08-17T09:27:53.165Z,5.70
2022-08-17T09:28:53.089Z,6.50
2022-08-17T09:29:53.013Z,5.00
2022-08-17T09:30:53.026Z,7.70
2022-08-17T09:31:52.986Z,5.10
2022-08-17T09:32:53.044Z,5.80
2022-08-17T09:33:53.043Z,4.80
2022-08-17T09:34:52.929Z,5.60
2022-08-17T09:35:52.953Z,4.60
2022-08-17T09:36:52.933Z,5.50
2022-08-17T09:37:53.072Z,5.60
2022-08-17T09:38:52.983Z,4.80
2022-08-17T09:39:53.098Z,5.80
2022-08-17T09:40:52.821Z,4.80
2022-08-17T09:41:52.843Z,5.50
2022-08-17T09:42:52.862Z,6.70
2022-08-17T09:43:52.966Z,4.60
2022-08-17T09:44:52.856Z,5.40
2022-08-17T09:45:52.928Z,6.00
2022-08-17T09:46:52.807Z,6.70
2022-08-17T09:47:53.025Z,7.50
2022-08-17T09:48:52.743Z,7.90
2022-08-17T09:49:52.762Z,6.40
2022-08-17T09:51:03.184Z,5.80
2022-08-17T09:51:53.751Z,4.90
2022-08-17T09:52:52.668Z,5.50
2022-08-17T09:53:52.684Z,4.90
2022-08-17T09:54:52.647Z,4.20
2022-08-17T09:55:52.669Z,4.30
2022-08-17T09:57:06.016Z,4.40
2022-08-17T09:57:53.685Z,5.80
2022-08-17T09:58:52.686Z,4.60
2022-08-17T09:59:52.594Z,4.50
2022-08-17T10:00:52.619Z,6.10
2022-08-17T10:01:52.561Z,5.70
2022-08-17T10:02:52.583Z,4.30
2022-08-17T10:03:52.641Z,7.10
2022-08-17T10:04:52.535Z,5.70
2022-08-17T10:05:56.897Z,5.50
2022-08-17T10:06:52.493Z,4.60
2022-08-17T10:07:57.319Z,4.30
2022-08-17T10:08:52.709Z,5.80
2022-08-17T10:09:52.515Z,3.90
2022-08-17T10:10:56.454Z,4.40
2022-08-17T10:11:52.456Z,7.90
2022-08-17T10:12:53.145Z,8.80
2022-08-17T10:13:59.455Z,4.40
2022-08-17T10:14:53.269Z,5.00
2022-08-17T10:15:52.440Z,6.50
2022-08-17T10:16:52.365Z,5.40
2022-08-17T10:17:52.415Z,8.60
2022-08-17T10:18:52.336Z,6.20
2022-08-17T10:19:52.317Z,5.50
2022-08-17T10:20:52.320Z,4.40
2022-08-17T10:22:00.630Z,7.10
2022-08-17T10:22:55.015Z,7.90
2022-08-17T10:23:52.287Z,6.00
2022-08-17T10:25:21.453Z,5.50
2022-08-17T10:25:55.662Z,4.50
2022-08-17T10:26:56.864Z,4.90
2022-08-17T10:27:53.255Z,5.30
2022-08-17T10:28:52.239Z,4.30
2022-08-17T10:29:52.208Z,5.40
2022-08-17T10:31:01.430Z,5.90
2022-08-17T10:31:53.233Z,5.30
2022-08-17T10:32:52.205Z,7.90
2022-08-17T10:33:52.145Z,7.00
2022-08-17T10:34:52.160Z,6.10
2022-08-17T10:35:52.135Z,6.60
2022-08-17T10:36:53.133Z,5.00
2022-08-17T10:37:52.319Z,5.90
2022-08-17T10:38:52.075Z,7.50
2022-08-17T10:39:59.292Z,6.80
2022-08-17T10:40:52.100Z,7.80
2022-08-17T10:41:52.077Z,5.50
2022-08-17T10:42:52.071Z,6.90
2022-08-17T10:43:58.895Z,7.10
2022-08-17T10:44:52.998Z,6.10
2022-08-17T10:46:10.510Z,5.80
2022-08-17T10:46:53.009Z,5.50
2022-08-17T10:47:55.360Z,5.80
2022-08-17T10:48:51.950Z,6.10
2022-08-17T10:49:51.971Z,4.60
2022-08-17T10:50:51.919Z,6.80
2022-08-17T10:51:51.938Z,7.30
2022-08-17T10:53:17.935Z,7.20
2022-08-17T10:53:52.913Z,5.80
2022-08-17T10:54:51.858Z,5.30
2022-08-17T10:56:01.562Z,6.60
2022-08-17T10:56:51.867Z,6.60
2022-08-17T10:57:51.984Z,6.10
2022-08-17T10:58:51.904Z,7.20
2022-08-17T10:59:51.846Z,7.10
2022-08-17T11:00:51.944Z,5.40
2022-08-17T11:01:51.924Z,4.80
2022-08-17T11:02:51.974Z,5.00
2022-08-17T11:03:51.782Z,5.40
2022-08-17T11:04:52.070Z,5.00
2022-08-17T11:05:51.735Z,6.80
2022-08-17T11:06:51.827Z,7.90
2022-08-17T11:07:51.806Z,5.10
2022-08-17T11:08:51.683Z,6.30
2022-08-17T11:09:51.934Z,5.60
2022-08-17T11:10:52.236Z,6.50
2022-08-17T11:11:51.656Z,5.00
2022-08-17T11:12:51.762Z,6.10
2022-08-17T11:13:51.598Z,4.70
2022-08-17T11:14:51.583Z,7.70
2022-08-17T11:15:51.629Z,5.70
2022-08-17T11:16:51.594Z,5.20
2022-08-17T11:17:51.595Z,4.60
2022-08-17T11:18:51.560Z,6.40
2022-08-17T11:19:51.539Z,4.40
2022-08-17T11:20:51.555Z,6.20
2022-08-17T11:21:51.529Z,5.40
2022-08-17T11:22:51.640Z,4.90
2022-08-17T11:23:51.494Z,5.00
2022-08-17T11:24:51.490Z,5.50
2022-08-17T11:25:51.445Z,4.20
2022-08-17T11:26:51.445Z,5.50
2022-08-17T11:27:51.463Z,6.50
2022-08-17T11:28:52.737Z,4.40
2022-08-17T11:29:56.832Z,6.80
2022-08-17T11:30:52.417Z,4.20
2022-08-17T11:31:51.407Z,6.00
2022-08-17T11:32:54.423Z,4.60
2022-08-17T11:33:51.409Z,4.30
2022-08-17T11:34:51.370Z,5.40
2022-08-17T11:35:51.325Z,5.10
2022-08-17T11:36:51.335Z,5.90
2022-08-17T11:37:51.264Z,6.10
2022-08-17T11:38:51.273Z,5.60
2022-08-17T11:39:51.351Z,4.50
2022-08-17T11:40:51.226Z,6.00
2022-08-17T11:41:51.246Z,4.60
2022-08-17T11:42:51.481Z,4.30
2022-08-17T11:43:51.199Z,6.90
2022-08-17T11:44:51.282Z,6.20
2022-08-17T11:45:51.194Z,5.70
2022-08-17T11:46:51.776Z,5.20
2022-08-17T11:48:16.100Z,4.70
2022-08-17T11:48:52.202Z,5.90
2022-08-17T11:49:51.134Z,4.90
2022-08-17T11:50:51.176Z,4.80
2022-08-17T11:51:51.090Z,5.50
2022-08-17T11:52:51.076Z,6.30
2022-08-17T11:53:59.818Z,5.50
2022-08-17T11:55:34.706Z,6.80
2022-08-17T11:55:52.057Z,6.20
2022-08-17T11:56:51.058Z,6.70
2022-08-17T11:58:35.769Z,5.50
2022-08-17T11:58:52.082Z,6.30
2022-08-17T11:59:51.063Z,7.00
2022-08-17T12:00:51.087Z,7.50
2022-08-17T12:01:50.970Z,6.00
2022-08-17T12:02:51.110Z,7.30
2022-08-17T12:03:55.510Z,7.60
2022-08-17T12:04:52.019Z,6.50
2022-08-17T12:05:50.940Z,5.90
2022-08-17T12:06:51.142Z,6.20
2022-08-17T12:07:51.128Z,5.40
2022-08-17T12:08:50.868Z,6.50
2022-08-17T12:09:50.870Z,6.50
2022-08-17T12:11:18.498Z,10.00
2022-08-17T12:11:55.575Z,9.60
2022-08-17T12:12:51.861Z,5.70
2022-08-17T12:13:50.808Z,5.60
2022-08-17T12:15:09.700Z,6.40
2022-08-17T12:15:52.027Z,7.00
2022-08-17T12:16:50.815Z,5.20
2022-08-17T12:17:50.996Z,7.40
2022-08-17T12:18:50.779Z,7.00
2022-08-17T12:19:50.795Z,7.70
2022-08-17T12:20:56.058Z,6.60
2022-08-17T12:21:51.935Z,6.60
2022-08-17T12:22:50.791Z,6.50
2022-08-17T12:23:51.690Z,6.00
2022-08-17T12:24:50.643Z,6.40
2022-08-17T12:25:50.680Z,6.00
2022-08-17T12:26:50.657Z,7.90
2022-08-17T12:28:06.605Z,6.80
2022-08-17T12:28:51.619Z,6.20
2022-08-17T12:29:50.619Z,5.20
2022-08-17T12:30:51.967Z,7.70
2022-08-17T12:31:50.562Z,5.40
2022-08-17T12:32:50.683Z,5.30
2022-08-17T12:33:50.581Z,7.30
2022-08-17T12:34:50.513Z,6.90
2022-08-17T12:35:50.727Z,5.90
2022-08-17T12:36:50.480Z,8.10
2022-08-17T12:37:50.764Z,7.80
2022-08-17T12:38:50.492Z,7.40
2022-08-17T12:39:50.593Z,8.20
2022-08-17T12:40:50.433Z,8.10
2022-08-17T12:41:50.494Z,7.40
2022-08-17T12:42:50.420Z,7.40
2022-08-17T12:43:50.403Z,5.40
2022-08-17T12:44:50.861Z,10.30
2022-08-17T12:45:50.406Z,11.20
2022-08-17T12:46:50.393Z,5.50
2022-08-17T12:47:50.492Z,6.20
2022-08-17T12:48:59.157Z,7.70
2022-08-17T12:49:51.446Z,6.20
2022-08-17T12:50:50.395Z,5.40
2022-08-17T12:51:50.273Z,6.80
2022-08-17T12:52:50.672Z,6.10
2022-08-17T12:53:50.377Z,9.50
2022-08-17T12:54:50.307Z,5.90
2022-08-17T12:55:50.259Z,6.20
2022-08-17T12:56:52.884Z,7.20
2022-08-17T12:57:50.372Z,10.00
2022-08-17T12:58:50.237Z,11.20
2022-08-17T12:59:50.245Z,6.40
2022-08-17T13:00:50.178Z,15.20
2022-08-17T13:01:50.259Z,16.20
2022-08-17T13:02:50.228Z,22.10
2022-08-17T13:03:50.450Z,8.40
2022-08-17T13:04:50.181Z,7.70
2022-08-17T13:05:50.203Z,6.00
2022-08-17T13:06:50.162Z,6.20
2022-08-17T13:07:50.309Z,4.90
2022-08-17T13:08:50.076Z,7.10
2022-08-17T13:09:50.138Z,5.60
2022-08-17T13:10:50.296Z,6.60
2022-08-17T13:11:50.078Z,4.90
2022-08-17T13:12:50.061Z,6.60